TimeEDT,TemperatureF,Dew PointF,Humidity,Sea Level PressureIn,VisibilityMPH,Wind Direction,Wind SpeedMPH,Gust SpeedMPH,PrecipitationIn,Events,Conditions,WindDirDegrees,DateUTC
12:19 AM,39.0,37.0,93,29.44,7.0,ENE,10.4,-,0.01,Rain,Light Rain,70,2014-04-08 04:19:00
12:53 AM,39.0,37.0,93,29.42,7.0,ENE,11.5,-,0.01,,Overcast,60,2014-04-08 04:53:00
1:16 AM,37.9,36.0,93,29.38,6.0,NE,12.7,-,N/A,,Overcast,50,2014-04-08 05:16:00
1:37 AM,37.9,36.0,93,29.37,4.0,NE,11.5,-,0.02,Rain,Light Rain,50,2014-04-08 05:37:00
1:50 AM,37.4,35.6,93,29.37,2.5,NE,8.1,-,0.07,Rain,Heavy Rain,40,2014-04-08 05:50:00
1:53 AM,37.9,36.0,93,29.40,2.5,NNE,9.2,-,0.09,Rain,Heavy Rain,20,2014-04-08 05:53:00
2:07 AM,37.0,36.0,96,29.37,3.0,NNE,9.2,-,0.06,Rain,Heavy Rain,20,2014-04-08 06:07:00
2:42 AM,37.0,35.1,93,29.32,4.0,ENE,11.5,-,0.14,Rain,Rain,60,2014-04-08 06:42:00
2:53 AM,37.0,35.1,93,29.34,6.0,ENE,9.2,-,0.16,Rain,Light Rain,60,2014-04-08 06:53:00
3:53 AM,37.0,35.1,93,29.32,10.0,ENE,6.9,-,0.00,,Overcast,70,2014-04-08 07:53:00
4:53 AM,37.0,36.0,96,29.29,3.0,East,3.5,-,0.00,,Overcast,80,2014-04-08 08:53:00
5:00 AM,37.0,36.0,96,29.25,2.5,ENE,4.6,-,0.00,,Overcast,70,2014-04-08 09:00:00
5:26 AM,37.0,36.0,96,29.25,3.0,East,3.5,-,0.01,Rain,Light Rain,80,2014-04-08 09:26:00
5:33 AM,37.9,36.0,93,29.24,2.0,Calm,Calm,-,0.02,Rain,Light Rain,0,2014-04-08 09:33:00
5:51 AM,37.4,35.6,93,29.25,3.0,Calm,Calm,-,0.05,Rain,Rain,0,2014-04-08 09:51:00
5:53 AM,37.9,35.1,89,29.28,3.0,Calm,Calm,-,0.05,Rain,Rain,0,2014-04-08 09:53:00
6:09 AM,37.9,36.0,93,29.26,4.0,WNW,4.6,-,0.02,Rain,Light Rain,290,2014-04-08 10:09:00
6:50 AM,37.4,35.6,93,29.26,5.0,NW,12.7,-,0.09,Rain,Rain,310,2014-04-08 10:50:00
6:53 AM,37.0,35.1,93,29.30,5.0,WNW,12.7,-,0.09,Rain,Light Rain,300,2014-04-08 10:53:00
7:00 AM,37.0,35.1,93,29.28,6.0,WNW,15.0,-,0.01,Rain,Light Rain,290,2014-04-08 11:00:00
7:44 AM,36.0,34.0,93,29.32,2.5,NW,16.1,-,0.03,Rain,Light Rain,320,2014-04-08 11:44:00
7:48 AM,35.6,33.8,93,29.33,1.8,NW,18.4,-,0.03,Rain,Light Rain,310,2014-04-08 11:48:00
7:53 AM,36.0,34.0,93,29.36,1.8,NW,19.6,-,0.04,Rain,Light Rain,310,2014-04-08 11:53:00
8:03 AM,35.1,34.0,96,29.34,2.0,NW,17.3,-,0.00,Rain,Light Rain,310,2014-04-08 12:03:00
8:11 AM,35.1,34.0,96,29.35,3.0,NW,16.1,23.0,0.00,Rain,Light Rain,310,2014-04-08 12:11:00
8:34 AM,35.1,34.0,96,29.36,2.0,WNW,15.0,-,0.00,Rain,Light Rain,300,2014-04-08 12:34:00
8:53 AM,36.0,34.0,93,29.41,2.0,WNW,16.1,-,0.00,Rain,Light Rain,300,2014-04-08 12:53:00
9:09 AM,36.0,34.0,93,29.38,3.0,WNW,15.0,-,0.00,Rain,Light Rain,290,2014-04-08 13:09:00
9:24 AM,36.0,34.0,93,29.39,5.0,WNW,15.0,-,0.01,Rain,Light Rain,290,2014-04-08 13:24:00
9:47 AM,35.6,33.8,93,29.41,5.0,West,16.1,-,0.01,Rain,Light Rain,280,2014-04-08 13:47:00
9:53 AM,36.0,34.0,93,29.45,5.0,West,16.1,-,0.01,Rain,Light Rain,270,2014-04-08 13:53:00
10:43 AM,37.0,35.1,93,29.44,10.0,West,17.3,-,0.01,Rain,Light Rain,270,2014-04-08 14:43:00
10:53 AM,37.9,35.1,89,29.48,9.0,West,16.1,23.0,0.01,Rain,Light Rain,270,2014-04-08 14:53:00
11:44 AM,39.0,36.0,89,29.48,10.0,West,12.7,21.9,0.01,,Overcast,260,2014-04-08 15:44:00
11:53 AM,39.0,35.1,86,29.52,10.0,West,13.8,-,0.01,,Overcast,260,2014-04-08 15:53:00
12:01 PM,39.0,35.1,86,29.49,10.0,West,13.8,-,N/A,,Overcast,260,2014-04-08 16:01:00
12:53 PM,41.0,36.0,82,29.54,10.0,West,10.4,-,N/A,,Overcast,260,2014-04-08 16:53:00
1:02 PM,42.1,36.0,79,29.52,10.0,West,13.8,-,N/A,,Overcast,260,2014-04-08 17:02:00
1:53 PM,44.1,35.1,71,29.56,10.0,West,17.3,-,N/A,,Overcast,280,2014-04-08 17:53:00
2:53 PM,46.9,35.1,63,29.57,10.0,WNW,19.6,25.3,N/A,,Mostly Cloudy,290,2014-04-08 18:53:00
3:53 PM,50.0,35.1,57,29.58,10.0,WNW,18.4,-,N/A,,Mostly Cloudy,300,2014-04-08 19:53:00
4:53 PM,52.0,33.1,49,29.60,10.0,WNW,11.5,-,N/A,,Mostly Cloudy,300,2014-04-08 20:53:00
5:53 PM,48.0,39.0,71,29.62,10.0,South,9.2,-,N/A,,Scattered Clouds,190,2014-04-08 21:53:00
6:53 PM,44.1,37.0,76,29.66,10.0,SSW,9.2,-,N/A,,Partly Cloudy,210,2014-04-08 22:53:00
7:53 PM,41.0,36.0,82,29.69,10.0,SW,4.6,-,N/A,,Partly Cloudy,220,2014-04-08 23:53:00
8:53 PM,39.0,34.0,82,29.72,10.0,South,6.9,-,N/A,,Mostly Cloudy,190,2014-04-09 00:53:00
9:53 PM,37.0,33.1,86,29.74,10.0,SSW,5.8,-,N/A,,Mostly Cloudy,200,2014-04-09 01:53:00
10:53 PM,35.1,32.0,89,29.75,10.0,SSW,5.8,-,N/A,,Scattered Clouds,200,2014-04-09 02:53:00
11:53 PM,34.0,30.9,89,29.76,5.0,SSW,5.8,-,N/A,,Mostly Cloudy,200,2014-04-09 03:53:00